sensor_id;sensor_type;location;lat;lon;timestamp;P1;durP1;ratioP1;P2;durP2;ratioP2
38693;SDS011;24447;43.460;25.744;2023-10-19T00:00:40;2.85;;;0.98;;
38693;SDS011;24447;43.460;25.744;2023-10-19T00:03:10;2.25;;;2.05;;
38693;SDS011;24447;43.460;25.744;2023-10-19T00:05:36;1.20;;;1.05;;
38693;SDS011;24447;43.460;25.744;2023-10-19T00:08:03;1.27;;;0.75;;
38693;SDS011;24447;43.460;25.744;2023-10-19T00:10:39;3.83;;;1.38;;
38693;SDS011;24447;43.460;25.744;2023-10-19T00:13:08;2.42;;;1.33;;
38693;SDS011;24447;43.460;25.744;2023-10-19T00:15:36;1.73;;;1.50;;
38693;SDS011;24447;43.460;25.744;2023-10-19T00:18:23;0.85;;;0.57;;
38693;SDS011;24447;43.460;25.744;2023-10-19T00:20:50;2.92;;;1.30;;
38693;SDS011;24447;43.460;25.744;2023-10-19T00:23:21;0.50;;;0.50;;
38693;SDS011;24447;43.460;25.744;2023-10-19T00:26:01;1.92;;;1.70;;
38693;SDS011;24447;43.460;25.744;2023-10-19T00:28:33;2.40;;;1.05;;
38693;SDS011;24447;43.460;25.744;2023-10-19T00:31:00;0.73;;;0.73;;
38693;SDS011;24447;43.460;25.744;2023-10-19T00:33:32;1.40;;;1.30;;
38693;SDS011;24447;43.460;25.744;2023-10-19T00:36:01;2.10;;;0.65;;
38693;SDS011;24447;43.460;25.744;2023-10-19T00:38:35;1.17;;;0.75;;
38693;SDS011;24447;43.460;25.744;2023-10-19T00:41:01;0.85;;;0.77;;
38693;SDS011;24447;43.460;25.744;2023-10-19T00:43:32;3.60;;;1.95;;
38693;SDS011;24447;43.460;25.744;2023-10-19T00:46:07;1.15;;;1.05;;
38693;SDS011;24447;43.460;25.744;2023-10-19T00:48:56;1.40;;;1.02;;
38693;SDS011;24447;43.460;25.744;2023-10-19T00:51:27;1.02;;;1.02;;
38693;SDS011;24447;43.460;25.744;2023-10-19T00:53:58;2.63;;;0.85;;
38693;SDS011;24447;43.460;25.744;2023-10-19T00:56:34;1.02;;;0.93;;
38693;SDS011;24447;43.460;25.744;2023-10-19T00:59:01;1.13;;;1.13;;
38693;SDS011;24447;43.460;25.744;2023-10-19T01:01:42;1.23;;;0.88;;
38693;SDS011;24447;43.460;25.744;2023-10-19T01:04:15;1.77;;;0.98;;
38693;SDS011;24447;43.460;25.744;2023-10-19T01:06:47;0.98;;;0.93;;
38693;SDS011;24447;43.460;25.744;2023-10-19T01:09:31;12.13;;;1.33;;
38693;SDS011;24447;43.460;25.744;2023-10-19T01:12:01;1.63;;;0.60;;
38693;SDS011;24447;43.460;25.744;2023-10-19T01:15:05;5.93;;;1.48;;
38693;SDS011;24447;43.460;25.744;2023-10-19T01:17:48;2.30;;;1.10;;
38693;SDS011;24447;43.460;25.744;2023-10-19T01:20:19;3.67;;;2.22;;
38693;SDS011;24447;43.460;25.744;2023-10-19T01:22:57;3.35;;;1.40;;
38693;SDS011;24447;43.460;25.744;2023-10-19T01:25:41;2.08;;;0.90;;
38693;SDS011;24447;43.460;25.744;2023-10-19T01:28:24;1.50;;;0.93;;
38693;SDS011;24447;43.460;25.744;2023-10-19T01:31:06;5.88;;;1.95;;
38693;SDS011;24447;43.460;25.744;2023-10-19T01:33:52;1.48;;;1.02;;
38693;SDS011;24447;43.460;25.744;2023-10-19T01:36:22;2.08;;;1.90;;
38693;SDS011;24447;43.460;25.744;2023-10-19T01:38:53;2.70;;;1.30;;
38693;SDS011;24447;43.460;25.744;2023-10-19T01:41:21;3.38;;;1.73;;
38693;SDS011;24447;43.460;25.744;2023-10-19T01:43:49;2.88;;;1.67;;
38693;SDS011;24447;43.460;25.744;2023-10-19T01:46:19;2.97;;;1.97;;
38693;SDS011;24447;43.460;25.744;2023-10-19T01:48:49;2.50;;;1.33;;
38693;SDS011;24447;43.460;25.744;2023-10-19T01:51:20;1.38;;;1.23;;
38693;SDS011;24447;43.460;25.744;2023-10-19T01:53:47;4.07;;;1.15;;
38693;SDS011;24447;43.460;25.744;2023-10-19T01:56:14;2.38;;;0.75;;
38693;SDS011;24447;43.460;25.744;2023-10-19T01:58:42;3.58;;;1.50;;
38693;SDS011;24447;43.460;25.744;2023-10-19T02:01:09;1.13;;;1.13;;
38693;SDS011;24447;43.460;25.744;2023-10-19T02:03:38;3.40;;;0.88;;
38693;SDS011;24447;43.460;25.744;2023-10-19T02:06:11;1.92;;;1.30;;
38693;SDS011;24447;43.460;25.744;2023-10-19T02:08:45;1.15;;;0.85;;
38693;SDS011;24447;43.460;25.744;2023-10-19T02:11:24;4.38;;;2.65;;
38693;SDS011;24447;43.460;25.744;2023-10-19T02:13:52;3.97;;;1.67;;
38693;SDS011;24447;43.460;25.744;2023-10-19T02:16:19;1.55;;;1.08;;
38693;SDS011;24447;43.460;25.744;2023-10-19T02:18:47;3.10;;;1.55;;
38693;SDS011;24447;43.460;25.744;2023-10-19T02:21:14;3.85;;;2.42;;
38693;SDS011;24447;43.460;25.744;2023-10-19T02:23:47;5.82;;;2.25;;
38693;SDS011;24447;43.460;25.744;2023-10-19T02:26:17;1.35;;;1.25;;
38693;SDS011;24447;43.460;25.744;2023-10-19T02:28:45;1.50;;;1.23;;
38693;SDS011;24447;43.460;25.744;2023-10-19T02:31:19;1.25;;;0.98;;
38693;SDS011;24447;43.460;25.744;2023-10-19T02:33:50;4.45;;;1.15;;
38693;SDS011;24447;43.460;25.744;2023-10-19T02:36:29;3.70;;;1.67;;
38693;SDS011;24447;43.460;25.744;2023-10-19T02:38:56;3.60;;;1.77;;
38693;SDS011;24447;43.460;25.744;2023-10-19T02:41:28;0.70;;;0.70;;
38693;SDS011;24447;43.460;25.744;2023-10-19T02:43:55;3.47;;;1.23;;
38693;SDS011;24447;43.460;25.744;2023-10-19T02:46:33;6.78;;;2.33;;
38693;SDS011;24447;43.460;25.744;2023-10-19T02:49:00;1.70;;;1.45;;
38693;SDS011;24447;43.460;25.744;2023-10-19T02:51:28;1.60;;;1.13;;
38693;SDS011;24447;43.460;25.744;2023-10-19T02:53:54;1.42;;;1.10;;
38693;SDS011;24447;43.460;25.744;2023-10-19T02:56:21;2.38;;;1.70;;
38693;SDS011;24447;43.460;25.744;2023-10-19T02:58:52;2.40;;;1.05;;
38693;SDS011;24447;43.460;25.744;2023-10-19T03:01:18;3.78;;;1.35;;
38693;SDS011;24447;43.460;25.744;2023-10-19T03:03:53;1.83;;;1.08;;
38693;SDS011;24447;43.460;25.744;2023-10-19T03:06:24;2.47;;;1.30;;
38693;SDS011;24447;43.460;25.744;2023-10-19T03:08:51;4.15;;;1.98;;
38693;SDS011;24447;43.460;25.744;2023-10-19T03:11:23;2.05;;;0.77;;
38693;SDS011;24447;43.460;25.744;2023-10-19T03:13:53;1.77;;;1.23;;
38693;SDS011;24447;43.460;25.744;2023-10-19T03:16:20;1.85;;;1.23;;
38693;SDS011;24447;43.460;25.744;2023-10-19T03:18:48;2.47;;;2.00;;
38693;SDS011;24447;43.460;25.744;2023-10-19T03:21:15;4.90;;;2.67;;
38693;SDS011;24447;43.460;25.744;2023-10-19T03:23:44;3.58;;;1.60;;
38693;SDS011;24447;43.460;25.744;2023-10-19T03:26:10;3.72;;;1.55;;
38693;SDS011;24447;43.460;25.744;2023-10-19T03:28:43;4.05;;;2.15;;
38693;SDS011;24447;43.460;25.744;2023-10-19T03:31:10;4.65;;;2.72;;
38693;SDS011;24447;43.460;25.744;2023-10-19T03:33:46;0.77;;;0.77;;
38693;SDS011;24447;43.460;25.744;2023-10-19T03:36:23;3.90;;;2.15;;
38693;SDS011;24447;43.460;25.744;2023-10-19T03:38:49;8.43;;;4.30;;
38693;SDS011;24447;43.460;25.744;2023-10-19T03:41:17;6.80;;;3.17;;
38693;SDS011;24447;43.460;25.744;2023-10-19T03:43:49;3.63;;;1.65;;
38693;SDS011;24447;43.460;25.744;2023-10-19T03:46:17;7.45;;;2.90;;
38693;SDS011;24447;43.460;25.744;2023-10-19T03:48:57;3.38;;;2.05;;
38693;SDS011;24447;43.460;25.744;2023-10-19T03:51:36;4.05;;;2.13;;
38693;SDS011;24447;43.460;25.744;2023-10-19T03:54:14;5.68;;;2.15;;
38693;SDS011;24447;43.460;25.744;2023-10-19T03:56:48;8.55;;;3.00;;
38693;SDS011;24447;43.460;25.744;2023-10-19T03:59:15;3.28;;;1.98;;
38693;SDS011;24447;43.460;25.744;2023-10-19T04:01:42;6.00;;;2.53;;
38693;SDS011;24447;43.460;25.744;2023-10-19T04:04:12;1.45;;;1.25;;
38693;SDS011;24447;43.460;25.744;2023-10-19T04:06:39;2.25;;;1.65;;
38693;SDS011;24447;43.460;25.744;2023-10-19T04:09:05;2.42;;;1.80;;
38693;SDS011;24447;43.460;25.744;2023-10-19T04:11:31;5.93;;;2.45;;
38693;SDS011;24447;43.460;25.744;2023-10-19T04:14:09;5.35;;;1.92;;
38693;SDS011;24447;43.460;25.744;2023-10-19T04:16:37;6.47;;;2.38;;
38693;SDS011;24447;43.460;25.744;2023-10-19T04:19:08;4.00;;;2.43;;
38693;SDS011;24447;43.460;25.744;2023-10-19T04:21:35;1.33;;;1.08;;
38693;SDS011;24447;43.460;25.744;2023-10-19T04:24:04;2.97;;;1.60;;
38693;SDS011;24447;43.460;25.744;2023-10-19T04:26:32;3.63;;;1.77;;
38693;SDS011;24447;43.460;25.744;2023-10-19T04:29:05;5.15;;;2.13;;
38693;SDS011;24447;43.460;25.744;2023-10-19T04:31:38;12.77;;;4.00;;
38693;SDS011;24447;43.460;25.744;2023-10-19T04:34:20;5.63;;;3.15;;
38693;SDS011;24447;43.460;25.744;2023-10-19T04:36:52;7.72;;;2.80;;
38693;SDS011;24447;43.460;25.744;2023-10-19T04:39:18;11.32;;;6.03;;
38693;SDS011;24447;43.460;25.744;2023-10-19T04:41:45;13.57;;;5.35;;
38693;SDS011;24447;43.460;25.744;2023-10-19T04:44:13;6.55;;;2.60;;
38693;SDS011;24447;43.460;25.744;2023-10-19T04:46:40;11.65;;;2.70;;
38693;SDS011;24447;43.460;25.744;2023-10-19T04:49:06;6.45;;;2.67;;
38693;SDS011;24447;43.460;25.744;2023-10-19T04:51:33;4.78;;;2.75;;
38693;SDS011;24447;43.460;25.744;2023-10-19T04:54:04;12.40;;;2.22;;
38693;SDS011;24447;43.460;25.744;2023-10-19T04:56:31;2.70;;;2.50;;
38693;SDS011;24447;43.460;25.744;2023-10-19T04:58:57;4.15;;;3.05;;
38693;SDS011;24447;43.460;25.744;2023-10-19T05:01:23;14.48;;;2.35;;
38693;SDS011;24447;43.460;25.744;2023-10-19T05:03:49;5.68;;;2.88;;
38693;SDS011;24447;43.460;25.744;2023-10-19T05:06:14;4.53;;;2.22;;
38693;SDS011;24447;43.460;25.744;2023-10-19T05:08:40;5.97;;;3.13;;
38693;SDS011;24447;43.460;25.744;2023-10-19T05:11:06;5.40;;;2.58;;
38693;SDS011;24447;43.460;25.744;2023-10-19T05:13:32;3.90;;;2.00;;
38693;SDS011;24447;43.460;25.744;2023-10-19T05:15:58;7.55;;;4.57;;
38693;SDS011;24447;43.460;25.744;2023-10-19T05:18:25;6.95;;;3.47;;
38693;SDS011;24447;43.460;25.744;2023-10-19T05:20:54;6.63;;;3.53;;
38693;SDS011;24447;43.460;25.744;2023-10-19T05:23:21;3.53;;;3.00;;
38693;SDS011;24447;43.460;25.744;2023-10-19T05:25:49;5.60;;;3.40;;
38693;SDS011;24447;43.460;25.744;2023-10-19T05:28:17;6.05;;;3.50;;
38693;SDS011;24447;43.460;25.744;2023-10-19T05:30:44;6.85;;;3.17;;
38693;SDS011;24447;43.460;25.744;2023-10-19T05:33:10;3.63;;;2.92;;
38693;SDS011;24447;43.460;25.744;2023-10-19T05:35:36;5.25;;;3.88;;
38693;SDS011;24447;43.460;25.744;2023-10-19T05:38:06;9.32;;;4.68;;
38693;SDS011;24447;43.460;25.744;2023-10-19T05:40:33;6.88;;;3.88;;
38693;SDS011;24447;43.460;25.744;2023-10-19T05:43:01;5.20;;;3.22;;
38693;SDS011;24447;43.460;25.744;2023-10-19T05:45:27;6.65;;;3.78;;
38693;SDS011;24447;43.460;25.744;2023-10-19T05:47:57;5.72;;;3.75;;
38693;SDS011;24447;43.460;25.744;2023-10-19T05:50:23;10.50;;;4.45;;
38693;SDS011;24447;43.460;25.744;2023-10-19T05:52:50;8.95;;;4.38;;
38693;SDS011;24447;43.460;25.744;2023-10-19T05:55:17;15.98;;;4.72;;
38693;SDS011;24447;43.460;25.744;2023-10-19T05:57:43;7.43;;;4.70;;
38693;SDS011;24447;43.460;25.744;2023-10-19T06:00:10;16.23;;;5.78;;
38693;SDS011;24447;43.460;25.744;2023-10-19T06:02:38;8.98;;;3.60;;
38693;SDS011;24447;43.460;25.744;2023-10-19T06:05:11;10.05;;;4.63;;
38693;SDS011;24447;43.460;25.744;2023-10-19T06:07:40;10.20;;;4.75;;
38693;SDS011;24447;43.460;25.744;2023-10-19T06:10:07;5.75;;;4.00;;
38693;SDS011;24447;43.460;25.744;2023-10-19T06:12:33;6.28;;;4.05;;
38693;SDS011;24447;43.460;25.744;2023-10-19T06:15:02;10.00;;;4.05;;
38693;SDS011;24447;43.460;25.744;2023-10-19T06:17:28;4.68;;;3.05;;
38693;SDS011;24447;43.460;25.744;2023-10-19T06:19:54;5.15;;;3.25;;
38693;SDS011;24447;43.460;25.744;2023-10-19T06:22:21;6.85;;;3.83;;
38693;SDS011;24447;43.460;25.744;2023-10-19T06:24:47;7.22;;;3.58;;
38693;SDS011;24447;43.460;25.744;2023-10-19T06:27:13;5.93;;;2.92;;
38693;SDS011;24447;43.460;25.744;2023-10-19T06:29:39;11.80;;;3.90;;
38693;SDS011;24447;43.460;25.744;2023-10-19T06:32:04;3.63;;;2.72;;
38693;SDS011;24447;43.460;25.744;2023-10-19T06:34:30;5.72;;;2.97;;
38693;SDS011;24447;43.460;25.744;2023-10-19T06:36:57;6.90;;;3.67;;
38693;SDS011;24447;43.460;25.744;2023-10-19T06:39:24;9.15;;;4.30;;
38693;SDS011;24447;43.460;25.744;2023-10-19T06:41:50;6.10;;;2.75;;
38693;SDS011;24447;43.460;25.744;2023-10-19T06:44:16;10.60;;;3.75;;
38693;SDS011;24447;43.460;25.744;2023-10-19T06:46:42;5.00;;;3.35;;
38693;SDS011;24447;43.460;25.744;2023-10-19T06:49:11;6.60;;;3.63;;
38693;SDS011;24447;43.460;25.744;2023-10-19T06:51:37;3.28;;;2.28;;
38693;SDS011;24447;43.460;25.744;2023-10-19T06:54:03;8.55;;;4.53;;
38693;SDS011;24447;43.460;25.744;2023-10-19T06:56:29;8.88;;;3.55;;
38693;SDS011;24447;43.460;25.744;2023-10-19T06:58:57;10.32;;;4.35;;
38693;SDS011;24447;43.460;25.744;2023-10-19T07:01:24;14.50;;;5.80;;
38693;SDS011;24447;43.460;25.744;2023-10-19T07:03:54;12.38;;;5.38;;
38693;SDS011;24447;43.460;25.744;2023-10-19T07:06:21;8.65;;;2.95;;
38693;SDS011;24447;43.460;25.744;2023-10-19T07:08:47;6.93;;;3.28;;
38693;SDS011;24447;43.460;25.744;2023-10-19T07:11:13;12.38;;;4.20;;
38693;SDS011;24447;43.460;25.744;2023-10-19T07:13:39;5.72;;;3.53;;
38693;SDS011;24447;43.460;25.744;2023-10-19T07:16:05;5.78;;;3.40;;
38693;SDS011;24447;43.460;25.744;2023-10-19T07:18:34;7.40;;;3.58;;
38693;SDS011;24447;43.460;25.744;2023-10-19T07:21:01;5.80;;;3.15;;
38693;SDS011;24447;43.460;25.744;2023-10-19T07:23:28;6.25;;;3.38;;
38693;SDS011;24447;43.460;25.744;2023-10-19T07:25:54;3.47;;;2.25;;
38693;SDS011;24447;43.460;25.744;2023-10-19T07:28:21;5.15;;;2.65;;
38693;SDS011;24447;43.460;25.744;2023-10-19T07:33:18;10.68;;;2.67;;
38693;SDS011;24447;43.460;25.744;2023-10-19T07:35:49;6.25;;;2.60;;
38693;SDS011;24447;43.460;25.744;2023-10-19T07:38:25;7.38;;;2.63;;
38693;SDS011;24447;43.460;25.744;2023-10-19T07:40:53;7.25;;;2.45;;
38693;SDS011;24447;43.460;25.744;2023-10-19T07:43:19;7.13;;;2.88;;
38693;SDS011;24447;43.460;25.744;2023-10-19T07:45:45;6.43;;;2.65;;
38693;SDS011;24447;43.460;25.744;2023-10-19T07:48:12;5.03;;;2.25;;
38693;SDS011;24447;43.460;25.744;2023-10-19T07:50:39;4.07;;;2.25;;
38693;SDS011;24447;43.460;25.744;2023-10-19T07:53:06;4.97;;;2.42;;
38693;SDS011;24447;43.460;25.744;2023-10-19T07:55:32;4.85;;;3.13;;
38693;SDS011;24447;43.460;25.744;2023-10-19T07:57:58;5.70;;;2.70;;
38693;SDS011;24447;43.460;25.744;2023-10-19T08:00:31;5.07;;;2.50;;
38693;SDS011;24447;43.460;25.744;2023-10-19T08:03:00;7.72;;;3.08;;
38693;SDS011;24447;43.460;25.744;2023-10-19T08:05:30;8.95;;;2.97;;
38693;SDS011;24447;43.460;25.744;2023-10-19T08:07:56;4.78;;;2.17;;
38693;SDS011;24447;43.460;25.744;2023-10-19T08:10:23;2.85;;;1.92;;
38693;SDS011;24447;43.460;25.744;2023-10-19T08:12:51;6.38;;;2.50;;
38693;SDS011;24447;43.460;25.744;2023-10-19T08:15:18;4.60;;;2.45;;
38693;SDS011;24447;43.460;25.744;2023-10-19T08:17:45;11.15;;;3.72;;
38693;SDS011;24447;43.460;25.744;2023-10-19T08:20:13;6.25;;;2.75;;
38693;SDS011;24447;43.460;25.744;2023-10-19T08:22:48;6.55;;;3.17;;
38693;SDS011;24447;43.460;25.744;2023-10-19T08:25:18;3.30;;;2.47;;
38693;SDS011;24447;43.460;25.744;2023-10-19T08:27:44;1.85;;;1.70;;
38693;SDS011;24447;43.460;25.744;2023-10-19T08:30:12;6.22;;;2.70;;
38693;SDS011;24447;43.460;25.744;2023-10-19T08:32:41;6.55;;;2.83;;
38693;SDS011;24447;43.460;25.744;2023-10-19T08:35:08;4.53;;;2.13;;
38693;SDS011;24447;43.460;25.744;2023-10-19T08:37:37;6.30;;;2.95;;
38693;SDS011;24447;43.460;25.744;2023-10-19T08:40:05;4.97;;;2.03;;
38693;SDS011;24447;43.460;25.744;2023-10-19T08:42:43;7.68;;;2.22;;
38693;SDS011;24447;43.460;25.744;2023-10-19T08:45:16;3.92;;;2.20;;
38693;SDS011;24447;43.460;25.744;2023-10-19T08:47:51;2.58;;;1.88;;
38693;SDS011;24447;43.460;25.744;2023-10-19T08:50:28;4.65;;;2.15;;
38693;SDS011;24447;43.460;25.744;2023-10-19T08:52:56;2.80;;;2.00;;
38693;SDS011;24447;43.460;25.744;2023-10-19T08:55:23;4.10;;;2.40;;
38693;SDS011;24447;43.460;25.744;2023-10-19T08:57:50;2.00;;;1.73;;
38693;SDS011;24447;43.460;25.744;2023-10-19T09:00:16;3.15;;;1.90;;
38693;SDS011;24447;43.460;25.744;2023-10-19T09:02:44;1.52;;;1.42;;
38693;SDS011;24447;43.460;25.744;2023-10-19T09:05:10;3.50;;;1.48;;
38693;SDS011;24447;43.460;25.744;2023-10-19T09:07:48;3.08;;;1.80;;
38693;SDS011;24447;43.460;25.744;2023-10-19T09:10:28;4.38;;;2.38;;
38693;SDS011;24447;43.460;25.744;2023-10-19T09:13:06;2.85;;;2.10;;
38693;SDS011;24447;43.460;25.744;2023-10-19T09:15:37;2.88;;;2.22;;
38693;SDS011;24447;43.460;25.744;2023-10-19T09:20:59;2.65;;;1.70;;
38693;SDS011;24447;43.460;25.744;2023-10-19T09:23:32;2.67;;;1.95;;
38693;SDS011;24447;43.460;25.744;2023-10-19T09:25:59;2.47;;;1.30;;
38693;SDS011;24447;43.460;25.744;2023-10-19T09:28:30;2.65;;;1.65;;
38693;SDS011;24447;43.460;25.744;2023-10-19T09:31:00;1.63;;;1.52;;
38693;SDS011;24447;43.460;25.744;2023-10-19T09:33:26;2.22;;;2.00;;
38693;SDS011;24447;43.460;25.744;2023-10-19T09:35:54;2.70;;;1.55;;
38693;SDS011;24447;43.460;25.744;2023-10-19T09:38:22;1.27;;;1.15;;
38693;SDS011;24447;43.460;25.744;2023-10-19T09:40:51;4.50;;;1.65;;
38693;SDS011;24447;43.460;25.744;2023-10-19T09:43:37;2.22;;;1.73;;
38693;SDS011;24447;43.460;25.744;2023-10-19T09:46:08;3.60;;;0.98;;
38693;SDS011;24447;43.460;25.744;2023-10-19T09:48:39;4.47;;;1.88;;
38693;SDS011;24447;43.460;25.744;2023-10-19T09:51:09;2.75;;;1.75;;
38693;SDS011;24447;43.460;25.744;2023-10-19T09:53:36;3.05;;;1.55;;
38693;SDS011;24447;43.460;25.744;2023-10-19T09:56:03;4.47;;;2.20;;
38693;SDS011;24447;43.460;25.744;2023-10-19T09:58:33;2.58;;;1.60;;
38693;SDS011;24447;43.460;25.744;2023-10-19T10:01:20;1.23;;;1.13;;
38693;SDS011;24447;43.460;25.744;2023-10-19T10:03:50;3.53;;;1.30;;
38693;SDS011;24447;43.460;25.744;2023-10-19T10:06:27;1.23;;;1.13;;
38693;SDS011;24447;43.460;25.744;2023-10-19T10:09:20;0.95;;;0.90;;
38693;SDS011;24447;43.460;25.744;2023-10-19T10:11:48;1.98;;;0.90;;
38693;SDS011;24447;43.460;25.744;2023-10-19T10:14:36;1.15;;;1.10;;
38693;SDS011;24447;43.460;25.744;2023-10-19T10:17:01;1.27;;;1.15;;
38693;SDS011;24447;43.460;25.744;2023-10-19T13:21:43;1.90;;;1.48;;
38693;SDS011;24447;43.460;25.744;2023-10-19T13:24:10;2.35;;;1.55;;
38693;SDS011;24447;43.460;25.744;2023-10-19T13:26:36;5.57;;;1.52;;
38693;SDS011;24447;43.460;25.744;2023-10-19T13:29:05;3.08;;;1.40;;
38693;SDS011;24447;43.460;25.744;2023-10-19T13:31:31;1.17;;;1.13;;
38693;SDS011;24447;43.460;25.744;2023-10-19T13:33:57;3.70;;;1.63;;
38693;SDS011;24447;43.460;25.744;2023-10-19T13:36:24;4.90;;;2.28;;
38693;SDS011;24447;43.460;25.744;2023-10-19T13:38:51;2.67;;;1.40;;
38693;SDS011;24447;43.460;25.744;2023-10-19T13:41:16;2.20;;;1.30;;
38693;SDS011;24447;43.460;25.744;2023-10-19T13:43:43;1.95;;;1.48;;
38693;SDS011;24447;43.460;25.744;2023-10-19T13:46:09;2.75;;;1.55;;
38693;SDS011;24447;43.460;25.744;2023-10-19T13:48:35;3.22;;;1.45;;
38693;SDS011;24447;43.460;25.744;2023-10-19T13:51:04;3.03;;;1.98;;
38693;SDS011;24447;43.460;25.744;2023-10-19T13:53:40;1.20;;;0.93;;
38693;SDS011;24447;43.460;25.744;2023-10-19T13:56:09;4.05;;;1.40;;
38693;SDS011;24447;43.460;25.744;2023-10-19T13:58:35;4.22;;;1.83;;
38693;SDS011;24447;43.460;25.744;2023-10-19T14:01:01;1.35;;;1.25;;
38693;SDS011;24447;43.460;25.744;2023-10-19T14:03:28;3.42;;;2.55;;
38693;SDS011;24447;43.460;25.744;2023-10-19T14:05:55;4.90;;;0.93;;
38693;SDS011;24447;43.460;25.744;2023-10-19T14:08:22;2.33;;;1.55;;
38693;SDS011;24447;43.460;25.744;2023-10-19T14:10:48;8.35;;;2.03;;
38693;SDS011;24447;43.460;25.744;2023-10-19T14:13:14;1.33;;;1.08;;
38693;SDS011;24447;43.460;25.744;2023-10-19T14:15:40;1.45;;;1.10;;
38693;SDS011;24447;43.460;25.744;2023-10-19T14:18:07;3.55;;;1.80;;
38693;SDS011;24447;43.460;25.744;2023-10-19T14:20:34;1.33;;;1.23;;
38693;SDS011;24447;43.460;25.744;2023-10-19T14:23:00;1.80;;;1.23;;
38693;SDS011;24447;43.460;25.744;2023-10-19T14:25:29;5.70;;;2.28;;
38693;SDS011;24447;43.460;25.744;2023-10-19T14:27:56;1.73;;;1.17;;
38693;SDS011;24447;43.460;25.744;2023-10-19T14:30:28;1.93;;;1.20;;
38693;SDS011;24447;43.460;25.744;2023-10-19T14:32:54;3.13;;;2.00;;
38693;SDS011;24447;43.460;25.744;2023-10-19T14:35:21;1.65;;;1.17;;
38693;SDS011;24447;43.460;25.744;2023-10-19T14:37:50;1.10;;;1.00;;
38693;SDS011;24447;43.460;25.744;2023-10-19T14:40:23;2.47;;;1.27;;
38693;SDS011;24447;43.460;25.744;2023-10-19T14:42:54;1.52;;;1.42;;
38693;SDS011;24447;43.460;25.744;2023-10-19T14:45:24;0.65;;;0.65;;
38693;SDS011;24447;43.460;25.744;2023-10-19T14:47:51;2.90;;;1.03;;
38693;SDS011;24447;43.460;25.744;2023-10-19T14:50:22;4.88;;;0.70;;
38693;SDS011;24447;43.460;25.744;2023-10-19T14:52:50;3.83;;;1.33;;
38693;SDS011;24447;43.460;25.744;2023-10-19T14:55:17;1.50;;;0.93;;
38693;SDS011;24447;43.460;25.744;2023-10-19T14:57:43;1.92;;;1.42;;
38693;SDS011;24447;43.460;25.744;2023-10-19T15:00:11;1.48;;;1.15;;
38693;SDS011;24447;43.460;25.744;2023-10-19T15:03:02;1.83;;;1.73;;
38693;SDS011;24447;43.460;25.744;2023-10-19T15:05:35;3.65;;;1.40;;
38693;SDS011;24447;43.460;25.744;2023-10-19T15:08:02;3.35;;;1.23;;
38693;SDS011;24447;43.460;25.744;2023-10-19T15:10:31;1.55;;;1.30;;
38693;SDS011;24447;43.460;25.744;2023-10-19T15:12:58;4.85;;;1.58;;
38693;SDS011;24447;43.460;25.744;2023-10-19T15:15:24;3.15;;;1.50;;
38693;SDS011;24447;43.460;25.744;2023-10-19T15:17:51;10.05;;;2.80;;
38693;SDS011;24447;43.460;25.744;2023-10-19T15:20:23;5.18;;;1.95;;
38693;SDS011;24447;43.460;25.744;2023-10-19T15:22:51;2.50;;;1.83;;
38693;SDS011;24447;43.460;25.744;2023-10-19T15:25:18;3.15;;;2.13;;
38693;SDS011;24447;43.460;25.744;2023-10-19T15:27:46;2.15;;;1.85;;
38693;SDS011;24447;43.460;25.744;2023-10-19T15:30:15;7.72;;;3.47;;
38693;SDS011;24447;43.460;25.744;2023-10-19T15:32:43;7.07;;;2.50;;
38693;SDS011;24447;43.460;25.744;2023-10-19T15:35:09;2.08;;;1.35;;
38693;SDS011;24447;43.460;25.744;2023-10-19T15:37:40;1.15;;;1.05;;
38693;SDS011;24447;43.460;25.744;2023-10-19T15:40:07;3.83;;;1.77;;
38693;SDS011;24447;43.460;25.744;2023-10-19T15:42:37;2.05;;;0.98;;
38693;SDS011;24447;43.460;25.744;2023-10-19T15:45:10;1.25;;;1.15;;
38693;SDS011;24447;43.460;25.744;2023-10-19T15:47:37;1.55;;;1.38;;
38693;SDS011;24447;43.460;25.744;2023-10-19T15:50:05;1.73;;;1.25;;
38693;SDS011;24447;43.460;25.744;2023-10-19T15:52:33;3.10;;;1.27;;
38693;SDS011;24447;43.460;25.744;2023-10-19T15:55:01;3.20;;;1.80;;
38693;SDS011;24447;43.460;25.744;2023-10-19T15:57:27;3.50;;;1.17;;
38693;SDS011;24447;43.460;25.744;2023-10-19T15:59:55;2.95;;;1.00;;
38693;SDS011;24447;43.460;25.744;2023-10-19T16:02:21;2.65;;;1.77;;
38693;SDS011;24447;43.460;25.744;2023-10-19T16:04:47;4.53;;;1.67;;
38693;SDS011;24447;43.460;25.744;2023-10-19T16:07:14;4.15;;;1.50;;
38693;SDS011;24447;43.460;25.744;2023-10-19T16:09:40;1.15;;;0.93;;
38693;SDS011;24447;43.460;25.744;2023-10-19T16:12:08;2.53;;;1.05;;
38693;SDS011;24447;43.460;25.744;2023-10-19T16:14:35;3.65;;;1.70;;
38693;SDS011;24447;43.460;25.744;2023-10-19T16:17:04;1.52;;;1.10;;
38693;SDS011;24447;43.460;25.744;2023-10-19T16:19:30;2.83;;;1.00;;
38693;SDS011;24447;43.460;25.744;2023-10-19T16:21:59;2.80;;;1.60;;
38693;SDS011;24447;43.460;25.744;2023-10-19T16:24:25;4.35;;;2.17;;
38693;SDS011;24447;43.460;25.744;2023-10-19T16:26:54;1.80;;;1.30;;
38693;SDS011;24447;43.460;25.744;2023-10-19T16:29:23;3.53;;;1.83;;
38693;SDS011;24447;43.460;25.744;2023-10-19T16:31:51;3.17;;;1.92;;
38693;SDS011;24447;43.460;25.744;2023-10-19T16:34:20;5.38;;;1.90;;
38693;SDS011;24447;43.460;25.744;2023-10-19T16:36:47;1.85;;;1.10;;
38693;SDS011;24447;43.460;25.744;2023-10-19T16:39:13;3.00;;;1.98;;
38693;SDS011;24447;43.460;25.744;2023-10-19T16:41:43;2.47;;;2.03;;
38693;SDS011;24447;43.460;25.744;2023-10-19T16:44:10;2.00;;;1.08;;
38693;SDS011;24447;43.460;25.744;2023-10-19T16:46:36;2.38;;;1.40;;
38693;SDS011;24447;43.460;25.744;2023-10-19T16:49:02;2.90;;;1.50;;
38693;SDS011;24447;43.460;25.744;2023-10-19T16:51:28;4.80;;;1.95;;
38693;SDS011;24447;43.460;25.744;2023-10-19T16:53:56;2.58;;;1.42;;
38693;SDS011;24447;43.460;25.744;2023-10-19T16:56:22;4.75;;;1.75;;
38693;SDS011;24447;43.460;25.744;2023-10-19T16:58:48;3.13;;;1.90;;
38693;SDS011;24447;43.460;25.744;2023-10-19T17:01:15;2.97;;;1.92;;
38693;SDS011;24447;43.460;25.744;2023-10-19T17:03:42;3.65;;;1.95;;
38693;SDS011;24447;43.460;25.744;2023-10-19T17:06:11;4.35;;;2.17;;
38693;SDS011;24447;43.460;25.744;2023-10-19T17:08:38;3.67;;;1.55;;
38693;SDS011;24447;43.460;25.744;2023-10-19T17:11:04;2.17;;;1.42;;
38693;SDS011;24447;43.460;25.744;2023-10-19T17:13:31;6.07;;;2.10;;
38693;SDS011;24447;43.460;25.744;2023-10-19T17:15:57;1.60;;;1.50;;
38693;SDS011;24447;43.460;25.744;2023-10-19T17:18:25;3.78;;;1.98;;
38693;SDS011;24447;43.460;25.744;2023-10-19T17:20:51;3.85;;;1.83;;
38693;SDS011;24447;43.460;25.744;2023-10-19T17:23:17;6.65;;;2.45;;
38693;SDS011;24447;43.460;25.744;2023-10-19T17:25:44;2.10;;;1.83;;
38693;SDS011;24447;43.460;25.744;2023-10-19T17:28:14;6.70;;;2.38;;
38693;SDS011;24447;43.460;25.744;2023-10-19T17:30:40;2.03;;;1.77;;
38693;SDS011;24447;43.460;25.744;2023-10-19T17:33:06;3.88;;;2.33;;
38693;SDS011;24447;43.460;25.744;2023-10-19T17:35:35;2.10;;;1.50;;
38693;SDS011;24447;43.460;25.744;2023-10-19T17:38:03;3.72;;;1.60;;
38693;SDS011;24447;43.460;25.744;2023-10-19T17:40:30;5.40;;;1.75;;
38693;SDS011;24447;43.460;25.744;2023-10-19T17:42:56;1.55;;;1.23;;
38693;SDS011;24447;43.460;25.744;2023-10-19T17:45:22;3.10;;;1.52;;
38693;SDS011;24447;43.460;25.744;2023-10-19T17:47:48;2.83;;;1.45;;
38693;SDS011;24447;43.460;25.744;2023-10-19T17:50:15;2.03;;;1.55;;
38693;SDS011;24447;43.460;25.744;2023-10-19T17:52:44;4.15;;;2.05;;